Terminal Aerodrome Forecast
Issued by NWS Cleveland, OH

Home | Current Version | Previous Version | Text Only | Print | Product List | Glossary On
Versions: 1 2 3 4 5 6 7 8 9 10 11 12 13 14 15 16 17 18 19
000
FTUS41 KCLE 271740
TAFYNG
TAF
KYNG 271740Z 2718/2818 16007KT P6SM BKN250
     FM272300 13006KT P6SM BKN070
     FM280900 15004KT 5SM BR SCT050 BKN150
     FM281300 26005KT P6SM BKN030=

USA.gov is the U.S. government's official web portal to all federal, state and local government web resources and services.